sensor_id;sensor_type;location;lat;lon;timestamp;P1;durP1;ratioP1;P2;durP2;ratioP2
44572;SDS011;31762;45.420;10.072;2022-11-20T00:02:57;15.73;;;9.83;;
44572;SDS011;31762;45.420;10.072;2022-11-20T00:07:59;12.88;;;8.57;;
44572;SDS011;31762;45.420;10.072;2022-11-20T00:13:01;12.80;;;9.50;;
44572;SDS011;31762;45.420;10.072;2022-11-20T00:18:02;15.10;;;10.70;;
44572;SDS011;31762;45.420;10.072;2022-11-20T00:23:04;12.93;;;9.65;;
44572;SDS011;31762;45.420;10.072;2022-11-20T00:28:06;12.63;;;8.43;;
44572;SDS011;31762;45.420;10.072;2022-11-20T00:33:07;9.68;;;8.57;;
44572;SDS011;31762;45.420;10.072;2022-11-20T00:38:09;10.03;;;8.93;;
44572;SDS011;31762;45.420;10.072;2022-11-20T00:43:11;9.60;;;7.75;;
44572;SDS011;31762;45.420;10.072;2022-11-20T00:48:13;9.48;;;8.15;;
44572;SDS011;31762;45.420;10.072;2022-11-20T00:53:14;9.98;;;8.95;;
44572;SDS011;31762;45.420;10.072;2022-11-20T00:58:16;10.53;;;9.37;;
44572;SDS011;31762;45.420;10.072;2022-11-20T01:03:18;10.20;;;8.45;;
44572;SDS011;31762;45.420;10.072;2022-11-20T01:08:29;12.13;;;8.85;;
44572;SDS011;31762;45.420;10.072;2022-11-20T01:13:32;11.20;;;8.68;;
44572;SDS011;31762;45.420;10.072;2022-11-20T01:18:34;10.48;;;8.65;;
44572;SDS011;31762;45.420;10.072;2022-11-20T01:23:38;14.13;;;9.40;;
44572;SDS011;31762;45.420;10.072;2022-11-20T01:28:41;15.27;;;10.73;;
44572;SDS011;31762;45.420;10.072;2022-11-20T01:33:44;16.33;;;10.68;;
44572;SDS011;31762;45.420;10.072;2022-11-20T01:38:46;10.93;;;9.47;;
44572;SDS011;31762;45.420;10.072;2022-11-20T01:43:48;12.60;;;8.55;;
44572;SDS011;31762;45.420;10.072;2022-11-20T01:48:54;11.70;;;9.27;;
44572;SDS011;31762;45.420;10.072;2022-11-20T01:54:12;11.45;;;9.02;;
44572;SDS011;31762;45.420;10.072;2022-11-20T01:59:18;10.97;;;8.87;;
44572;SDS011;31762;45.420;10.072;2022-11-20T02:04:22;11.77;;;8.55;;
44572;SDS011;31762;45.420;10.072;2022-11-20T02:09:26;8.07;;;7.28;;
44572;SDS011;31762;45.420;10.072;2022-11-20T02:14:28;8.43;;;7.60;;
44572;SDS011;31762;45.420;10.072;2022-11-20T02:19:31;7.53;;;6.82;;
44572;SDS011;31762;45.420;10.072;2022-11-20T02:24:33;7.15;;;6.45;;
44572;SDS011;31762;45.420;10.072;2022-11-20T02:34:48;7.20;;;6.50;;
44572;SDS011;31762;45.420;10.072;2022-11-20T02:39:51;7.50;;;6.75;;
44572;SDS011;31762;45.420;10.072;2022-11-20T02:44:53;7.07;;;6.38;;
44572;SDS011;31762;45.420;10.072;2022-11-20T02:49:54;6.40;;;5.82;;
44572;SDS011;31762;45.420;10.072;2022-11-20T02:54:56;7.00;;;6.38;;
44572;SDS011;31762;45.420;10.072;2022-11-20T02:59:58;6.50;;;5.90;;
44572;SDS011;31762;45.420;10.072;2022-11-20T03:05:00;6.67;;;6.00;;
44572;SDS011;31762;45.420;10.072;2022-11-20T03:10:02;6.53;;;6.00;;
44572;SDS011;31762;45.420;10.072;2022-11-20T03:15:05;7.25;;;6.55;;
44572;SDS011;31762;45.420;10.072;2022-11-20T03:20:07;6.15;;;5.65;;
44572;SDS011;31762;45.420;10.072;2022-11-20T03:25:09;6.50;;;6.00;;
44572;SDS011;31762;45.420;10.072;2022-11-20T03:30:11;6.25;;;5.65;;
44572;SDS011;31762;45.420;10.072;2022-11-20T03:35:14;6.57;;;5.88;;
44572;SDS011;31762;45.420;10.072;2022-11-20T03:40:15;6.70;;;5.67;;
44572;SDS011;31762;45.420;10.072;2022-11-20T03:45:17;6.13;;;5.53;;
44572;SDS011;31762;45.420;10.072;2022-11-20T03:50:20;6.13;;;5.57;;
44572;SDS011;31762;45.420;10.072;2022-11-20T03:55:21;5.72;;;5.00;;
44572;SDS011;31762;45.420;10.072;2022-11-20T04:00:23;5.73;;;5.20;;
44572;SDS011;31762;45.420;10.072;2022-11-20T04:05:25;6.10;;;5.60;;
44572;SDS011;31762;45.420;10.072;2022-11-20T04:10:26;6.13;;;5.57;;
44572;SDS011;31762;45.420;10.072;2022-11-20T04:15:28;6.20;;;5.60;;
44572;SDS011;31762;45.420;10.072;2022-11-20T04:20:35;6.40;;;5.30;;
44572;SDS011;31762;45.420;10.072;2022-11-20T04:25:37;5.88;;;5.38;;
44572;SDS011;31762;45.420;10.072;2022-11-20T04:30:39;5.90;;;5.30;;
44572;SDS011;31762;45.420;10.072;2022-11-20T04:35:40;6.10;;;5.50;;
44572;SDS011;31762;45.420;10.072;2022-11-20T04:40:42;5.97;;;5.38;;
44572;SDS011;31762;45.420;10.072;2022-11-20T04:45:49;6.03;;;5.20;;
44572;SDS011;31762;45.420;10.072;2022-11-20T04:50:52;6.10;;;5.50;;
44572;SDS011;31762;45.420;10.072;2022-11-20T04:55:58;6.22;;;5.63;;
44572;SDS011;31762;45.420;10.072;2022-11-20T05:06:08;5.40;;;4.90;;
44572;SDS011;31762;45.420;10.072;2022-11-20T05:11:12;5.53;;;5.03;;
44572;SDS011;31762;45.420;10.072;2022-11-20T05:16:16;5.38;;;4.88;;
44572;SDS011;31762;45.420;10.072;2022-11-20T05:21:20;5.85;;;5.28;;
44572;SDS011;31762;45.420;10.072;2022-11-20T05:26:23;5.95;;;5.35;;
44572;SDS011;31762;45.420;10.072;2022-11-20T05:31:25;5.83;;;5.27;;
44572;SDS011;31762;45.420;10.072;2022-11-20T05:36:28;5.53;;;5.03;;
44572;SDS011;31762;45.420;10.072;2022-11-20T05:41:32;5.55;;;5.05;;
44572;SDS011;31762;45.420;10.072;2022-11-20T05:46:34;6.00;;;5.40;;
44572;SDS011;31762;45.420;10.072;2022-11-20T05:51:36;6.57;;;5.37;;
44572;SDS011;31762;45.420;10.072;2022-11-20T05:56:38;5.53;;;4.85;;
44572;SDS011;31762;45.420;10.072;2022-11-20T06:01:40;5.80;;;5.30;;
44572;SDS011;31762;45.420;10.072;2022-11-20T06:06:41;5.68;;;5.18;;
44572;SDS011;31762;45.420;10.072;2022-11-20T06:11:43;5.35;;;4.85;;
44572;SDS011;31762;45.420;10.072;2022-11-20T06:16:45;6.47;;;5.20;;
44572;SDS011;31762;45.420;10.072;2022-11-20T06:21:47;6.13;;;5.53;;
44572;SDS011;31762;45.420;10.072;2022-11-20T06:26:49;6.18;;;5.43;;
44572;SDS011;31762;45.420;10.072;2022-11-20T06:31:51;6.30;;;5.60;;
44572;SDS011;31762;45.420;10.072;2022-11-20T06:36:53;6.72;;;6.03;;
44572;SDS011;31762;45.420;10.072;2022-11-20T06:41:55;7.73;;;6.93;;
44572;SDS011;31762;45.420;10.072;2022-11-20T06:46:59;9.35;;;7.05;;
44572;SDS011;31762;45.420;10.072;2022-11-20T06:52:01;9.30;;;7.70;;
44572;SDS011;31762;45.420;10.072;2022-11-20T06:57:02;10.00;;;7.90;;
44572;SDS011;31762;45.420;10.072;2022-11-20T07:02:04;9.20;;;7.97;;
44572;SDS011;31762;45.420;10.072;2022-11-20T07:07:06;7.43;;;6.57;;
44572;SDS011;31762;45.420;10.072;2022-11-20T07:12:08;8.48;;;7.57;;
44572;SDS011;31762;45.420;10.072;2022-11-20T07:17:09;8.83;;;7.90;;
44572;SDS011;31762;45.420;10.072;2022-11-20T07:22:12;11.32;;;8.48;;
44572;SDS011;31762;45.420;10.072;2022-11-20T07:27:14;8.40;;;7.50;;
44572;SDS011;31762;45.420;10.072;2022-11-20T07:32:16;7.63;;;6.83;;
44572;SDS011;31762;45.420;10.072;2022-11-20T07:37:17;8.10;;;6.40;;
44572;SDS011;31762;45.420;10.072;2022-11-20T07:42:19;5.07;;;4.35;;
44572;SDS011;31762;45.420;10.072;2022-11-20T07:47:21;4.10;;;3.73;;
44572;SDS011;31762;45.420;10.072;2022-11-20T07:52:23;5.20;;;3.75;;
44572;SDS011;31762;45.420;10.072;2022-11-20T07:57:24;5.22;;;4.20;;
44572;SDS011;31762;45.420;10.072;2022-11-20T08:02:28;4.68;;;4.28;;
44572;SDS011;31762;45.420;10.072;2022-11-20T08:07:34;4.13;;;3.63;;
44572;SDS011;31762;45.420;10.072;2022-11-20T08:12:47;5.40;;;4.13;;
44572;SDS011;31762;45.420;10.072;2022-11-20T08:17:50;4.97;;;4.10;;
44572;SDS011;31762;45.420;10.072;2022-11-20T08:23:12;5.05;;;3.90;;
44572;SDS011;31762;45.420;10.072;2022-11-20T08:28:14;5.57;;;4.47;;
44572;SDS011;31762;45.420;10.072;2022-11-20T08:33:21;4.82;;;3.97;;
44572;SDS011;31762;45.420;10.072;2022-11-20T08:38:23;3.83;;;3.47;;
44572;SDS011;31762;45.420;10.072;2022-11-20T08:43:25;5.53;;;3.30;;
44572;SDS011;31762;45.420;10.072;2022-11-20T08:48:26;4.50;;;3.90;;
44572;SDS011;31762;45.420;10.072;2022-11-20T08:53:28;5.33;;;4.57;;
44572;SDS011;31762;45.420;10.072;2022-11-20T08:58:30;5.43;;;4.38;;
44572;SDS011;31762;45.420;10.072;2022-11-20T09:03:52;5.82;;;5.00;;
44572;SDS011;31762;45.420;10.072;2022-11-20T09:08:55;6.03;;;4.47;;
44572;SDS011;31762;45.420;10.072;2022-11-20T09:14:02;5.07;;;4.60;;
44572;SDS011;31762;45.420;10.072;2022-11-20T09:19:04;5.63;;;5.05;;
44572;SDS011;31762;45.420;10.072;2022-11-20T09:24:26;7.72;;;4.45;;
44572;SDS011;31762;45.420;10.072;2022-11-20T09:29:28;5.50;;;4.63;;
44572;SDS011;31762;45.420;10.072;2022-11-20T09:34:30;5.90;;;4.80;;
44572;SDS011;31762;45.420;10.072;2022-11-20T09:39:31;6.53;;;4.72;;
44572;SDS011;31762;45.420;10.072;2022-11-20T09:44:51;6.13;;;4.38;;
44572;SDS011;31762;45.420;10.072;2022-11-20T09:55:23;6.50;;;5.70;;
44572;SDS011;31762;45.420;10.072;2022-11-20T10:00:26;7.07;;;6.35;;
44572;SDS011;31762;45.420;10.072;2022-11-20T10:05:31;8.48;;;7.45;;
44572;SDS011;31762;45.420;10.072;2022-11-20T10:16:13;8.90;;;7.97;;
44572;SDS011;31762;45.420;10.072;2022-11-20T10:21:46;7.50;;;6.70;;
44572;SDS011;31762;45.420;10.072;2022-11-20T10:32:14;10.75;;;7.22;;
44572;SDS011;31762;45.420;10.072;2022-11-20T10:37:26;7.70;;;6.30;;
44572;SDS011;31762;45.420;10.072;2022-11-20T10:42:31;9.45;;;7.13;;
44572;SDS011;31762;45.420;10.072;2022-11-20T10:53:13;9.85;;;8.23;;
44572;SDS011;31762;45.420;10.072;2022-11-20T11:04:33;8.27;;;7.32;;
44572;SDS011;31762;45.420;10.072;2022-11-20T11:09:40;9.80;;;7.83;;
44572;SDS011;31762;45.420;10.072;2022-11-20T11:14:52;9.40;;;7.85;;
44572;SDS011;31762;45.420;10.072;2022-11-20T11:20:02;9.40;;;7.47;;
44572;SDS011;31762;45.420;10.072;2022-11-20T11:25:07;7.03;;;6.33;;
44572;SDS011;31762;45.420;10.072;2022-11-20T11:30:19;9.85;;;6.57;;
44572;SDS011;31762;45.420;10.072;2022-11-20T11:35:23;9.27;;;7.43;;
44572;SDS011;31762;45.420;10.072;2022-11-20T11:40:27;11.77;;;9.23;;
44572;SDS011;31762;45.420;10.072;2022-11-20T11:45:32;9.18;;;7.97;;
44572;SDS011;31762;45.420;10.072;2022-11-20T11:50:33;10.63;;;8.82;;
44572;SDS011;31762;45.420;10.072;2022-11-20T12:06:10;10.65;;;7.93;;
44572;SDS011;31762;45.420;10.072;2022-11-20T12:16:33;13.18;;;8.77;;
44572;SDS011;31762;45.420;10.072;2022-11-20T12:21:40;11.48;;;9.38;;
44572;SDS011;31762;45.420;10.072;2022-11-20T12:27:14;9.32;;;7.88;;
44572;SDS011;31762;45.420;10.072;2022-11-20T12:37:57;10.93;;;9.05;;
44572;SDS011;31762;45.420;10.072;2022-11-20T12:43:28;11.80;;;8.88;;
44572;SDS011;31762;45.420;10.072;2022-11-20T13:10:18;11.05;;;8.70;;
44572;SDS011;31762;45.420;10.072;2022-11-20T13:15:58;11.02;;;8.48;;
44572;SDS011;31762;45.420;10.072;2022-11-20T13:21:12;13.25;;;10.55;;
44572;SDS011;31762;45.420;10.072;2022-11-20T13:26:19;12.23;;;9.15;;
44572;SDS011;31762;45.420;10.072;2022-11-20T13:31:30;11.77;;;9.93;;
44572;SDS011;31762;45.420;10.072;2022-11-20T13:36:34;12.00;;;9.05;;
44572;SDS011;31762;45.420;10.072;2022-11-20T13:41:36;11.20;;;8.67;;
44572;SDS011;31762;45.420;10.072;2022-11-20T13:46:39;11.00;;;8.60;;
44572;SDS011;31762;45.420;10.072;2022-11-20T13:51:43;10.98;;;9.38;;
44572;SDS011;31762;45.420;10.072;2022-11-20T14:02:19;10.40;;;8.30;;
44572;SDS011;31762;45.420;10.072;2022-11-20T14:07:34;9.57;;;8.05;;
44572;SDS011;31762;45.420;10.072;2022-11-20T14:12:41;11.32;;;7.50;;
44572;SDS011;31762;45.420;10.072;2022-11-20T14:17:42;11.93;;;8.43;;
44572;SDS011;31762;45.420;10.072;2022-11-20T14:22:48;11.95;;;8.30;;
44572;SDS011;31762;45.420;10.072;2022-11-20T14:27:51;11.03;;;8.90;;
44572;SDS011;31762;45.420;10.072;2022-11-20T14:32:56;10.93;;;8.50;;
44572;SDS011;31762;45.420;10.072;2022-11-20T14:38:02;11.70;;;8.73;;
44572;SDS011;31762;45.420;10.072;2022-11-20T14:48:34;12.45;;;8.73;;
44572;SDS011;31762;45.420;10.072;2022-11-20T14:53:40;15.50;;;9.65;;
44572;SDS011;31762;45.420;10.072;2022-11-20T14:58:42;11.77;;;8.88;;
44572;SDS011;31762;45.420;10.072;2022-11-20T15:03:44;12.40;;;9.20;;
44572;SDS011;31762;45.420;10.072;2022-11-20T15:08:52;12.60;;;9.15;;
44572;SDS011;31762;45.420;10.072;2022-11-20T15:13:54;11.63;;;9.77;;
44572;SDS011;31762;45.420;10.072;2022-11-20T15:18:56;12.00;;;9.55;;
44572;SDS011;31762;45.420;10.072;2022-11-20T15:23:58;15.73;;;10.00;;
44572;SDS011;31762;45.420;10.072;2022-11-20T15:28:59;12.45;;;10.13;;
44572;SDS011;31762;45.420;10.072;2022-11-20T15:34:01;15.35;;;11.15;;
44572;SDS011;31762;45.420;10.072;2022-11-20T15:39:03;12.27;;;9.77;;
44572;SDS011;31762;45.420;10.072;2022-11-20T15:44:05;17.80;;;11.57;;
44572;SDS011;31762;45.420;10.072;2022-11-20T15:49:14;14.03;;;10.97;;
44572;SDS011;31762;45.420;10.072;2022-11-20T15:54:20;15.80;;;10.13;;
44572;SDS011;31762;45.420;10.072;2022-11-20T15:59:23;14.73;;;10.60;;
44572;SDS011;31762;45.420;10.072;2022-11-20T16:04:25;13.93;;;10.30;;
44572;SDS011;31762;45.420;10.072;2022-11-20T16:09:27;12.00;;;9.35;;
44572;SDS011;31762;45.420;10.072;2022-11-20T16:14:29;12.70;;;9.90;;
44572;SDS011;31762;45.420;10.072;2022-11-20T16:19:30;12.63;;;10.32;;
44572;SDS011;31762;45.420;10.072;2022-11-20T16:24:32;16.13;;;11.30;;
44572;SDS011;31762;45.420;10.072;2022-11-20T16:29:34;12.70;;;10.27;;
44572;SDS011;31762;45.420;10.072;2022-11-20T16:34:36;14.15;;;10.82;;
44572;SDS011;31762;45.420;10.072;2022-11-20T16:39:38;17.23;;;11.60;;
44572;SDS011;31762;45.420;10.072;2022-11-20T16:44:40;14.88;;;11.65;;
44572;SDS011;31762;45.420;10.072;2022-11-20T16:49:41;19.73;;;13.77;;
44572;SDS011;31762;45.420;10.072;2022-11-20T16:54:43;17.88;;;13.20;;
44572;SDS011;31762;45.420;10.072;2022-11-20T16:59:45;14.38;;;12.02;;
44572;SDS011;31762;45.420;10.072;2022-11-20T17:04:47;18.63;;;14.38;;
44572;SDS011;31762;45.420;10.072;2022-11-20T17:09:49;20.83;;;15.23;;
44572;SDS011;31762;45.420;10.072;2022-11-20T17:14:51;17.92;;;15.25;;
44572;SDS011;31762;45.420;10.072;2022-11-20T17:19:53;21.48;;;15.65;;
44572;SDS011;31762;45.420;10.072;2022-11-20T17:24:55;23.13;;;17.00;;
44572;SDS011;31762;45.420;10.072;2022-11-20T17:29:57;29.83;;;21.50;;
44572;SDS011;31762;45.420;10.072;2022-11-20T17:34:59;25.73;;;19.37;;
44572;SDS011;31762;45.420;10.072;2022-11-20T17:40:01;23.00;;;18.00;;
44572;SDS011;31762;45.420;10.072;2022-11-20T17:45:03;26.85;;;19.40;;
44572;SDS011;31762;45.420;10.072;2022-11-20T17:50:05;24.53;;;18.70;;
44572;SDS011;31762;45.420;10.072;2022-11-20T17:55:08;25.43;;;18.77;;
44572;SDS011;31762;45.420;10.072;2022-11-20T18:00:10;23.75;;;18.25;;
44572;SDS011;31762;45.420;10.072;2022-11-20T18:05:12;25.00;;;18.95;;
44572;SDS011;31762;45.420;10.072;2022-11-20T18:10:14;26.13;;;20.15;;
44572;SDS011;31762;45.420;10.072;2022-11-20T18:15:16;25.08;;;21.55;;
44572;SDS011;31762;45.420;10.072;2022-11-20T18:20:18;26.20;;;21.95;;
44572;SDS011;31762;45.420;10.072;2022-11-20T18:25:40;29.95;;;23.17;;
44572;SDS011;31762;45.420;10.072;2022-11-20T18:30:41;28.20;;;22.98;;
44572;SDS011;31762;45.420;10.072;2022-11-20T18:35:43;19.47;;;15.17;;
44572;SDS011;31762;45.420;10.072;2022-11-20T18:40:45;18.80;;;13.90;;
44572;SDS011;31762;45.420;10.072;2022-11-20T18:45:46;20.70;;;14.55;;
44572;SDS011;31762;45.420;10.072;2022-11-20T18:50:48;21.17;;;15.02;;
44572;SDS011;31762;45.420;10.072;2022-11-20T18:55:50;22.27;;;15.27;;
44572;SDS011;31762;45.420;10.072;2022-11-20T19:00:52;20.55;;;16.17;;
44572;SDS011;31762;45.420;10.072;2022-11-20T19:05:53;16.85;;;12.68;;
44572;SDS011;31762;45.420;10.072;2022-11-20T19:11:03;15.43;;;12.18;;
44572;SDS011;31762;45.420;10.072;2022-11-20T19:16:12;15.33;;;11.97;;
44572;SDS011;31762;45.420;10.072;2022-11-20T19:21:17;18.77;;;14.88;;
44572;SDS011;31762;45.420;10.072;2022-11-20T19:26:24;19.20;;;14.57;;
44572;SDS011;31762;45.420;10.072;2022-11-20T19:31:26;19.63;;;15.95;;
44572;SDS011;31762;45.420;10.072;2022-11-20T19:36:32;19.45;;;14.13;;
44572;SDS011;31762;45.420;10.072;2022-11-20T19:41:40;15.93;;;14.23;;
44572;SDS011;31762;45.420;10.072;2022-11-20T19:46:42;15.32;;;12.45;;
44572;SDS011;31762;45.420;10.072;2022-11-20T19:51:45;18.90;;;15.43;;
44572;SDS011;31762;45.420;10.072;2022-11-20T19:56:48;16.40;;;14.48;;
44572;SDS011;31762;45.420;10.072;2022-11-20T20:01:50;20.10;;;14.00;;
44572;SDS011;31762;45.420;10.072;2022-11-20T20:06:52;17.60;;;14.55;;
44572;SDS011;31762;45.420;10.072;2022-11-20T20:11:53;15.63;;;13.93;;
44572;SDS011;31762;45.420;10.072;2022-11-20T20:16:55;17.63;;;14.02;;
44572;SDS011;31762;45.420;10.072;2022-11-20T20:21:57;23.05;;;16.38;;
44572;SDS011;31762;45.420;10.072;2022-11-20T20:26:58;22.63;;;17.30;;
44572;SDS011;31762;45.420;10.072;2022-11-20T20:32:00;47.23;;;30.67;;
44572;SDS011;31762;45.420;10.072;2022-11-20T20:37:02;32.38;;;23.92;;
44572;SDS011;31762;45.420;10.072;2022-11-20T20:42:04;33.95;;;22.90;;
44572;SDS011;31762;45.420;10.072;2022-11-20T20:47:05;31.90;;;23.00;;
44572;SDS011;31762;45.420;10.072;2022-11-20T20:52:07;26.83;;;20.03;;
44572;SDS011;31762;45.420;10.072;2022-11-20T20:57:09;23.43;;;18.60;;
44572;SDS011;31762;45.420;10.072;2022-11-20T21:02:11;20.88;;;17.73;;
44572;SDS011;31762;45.420;10.072;2022-11-20T21:07:13;16.10;;;14.20;;
44572;SDS011;31762;45.420;10.072;2022-11-20T21:12:15;17.42;;;13.70;;
44572;SDS011;31762;45.420;10.072;2022-11-20T21:17:16;18.30;;;15.45;;
44572;SDS011;31762;45.420;10.072;2022-11-20T21:22:18;18.70;;;15.63;;
44572;SDS011;31762;45.420;10.072;2022-11-20T21:27:20;18.43;;;14.43;;
44572;SDS011;31762;45.420;10.072;2022-11-20T21:32:21;19.73;;;15.13;;
44572;SDS011;31762;45.420;10.072;2022-11-20T21:37:23;18.20;;;14.45;;
44572;SDS011;31762;45.420;10.072;2022-11-20T21:42:25;19.07;;;15.33;;
44572;SDS011;31762;45.420;10.072;2022-11-20T21:47:27;22.02;;;16.60;;
44572;SDS011;31762;45.420;10.072;2022-11-20T21:52:28;18.87;;;16.40;;
44572;SDS011;31762;45.420;10.072;2022-11-20T21:57:33;19.92;;;15.30;;
44572;SDS011;31762;45.420;10.072;2022-11-20T22:02:37;18.23;;;15.57;;
44572;SDS011;31762;45.420;10.072;2022-11-20T22:07:41;16.75;;;13.73;;
44572;SDS011;31762;45.420;10.072;2022-11-20T22:12:44;15.93;;;14.00;;
44572;SDS011;31762;45.420;10.072;2022-11-20T22:17:45;15.55;;;13.10;;
44572;SDS011;31762;45.420;10.072;2022-11-20T22:22:47;16.10;;;13.33;;
44572;SDS011;31762;45.420;10.072;2022-11-20T22:27:49;17.88;;;13.98;;
44572;SDS011;31762;45.420;10.072;2022-11-20T22:32:51;15.07;;;12.18;;
44572;SDS011;31762;45.420;10.072;2022-11-20T22:37:53;14.20;;;11.23;;
44572;SDS011;31762;45.420;10.072;2022-11-20T22:42:54;17.65;;;11.65;;
44572;SDS011;31762;45.420;10.072;2022-11-20T22:47:56;12.70;;;10.43;;
44572;SDS011;31762;45.420;10.072;2022-11-20T22:52:58;14.85;;;11.73;;
44572;SDS011;31762;45.420;10.072;2022-11-20T22:58:00;11.95;;;9.68;;
44572;SDS011;31762;45.420;10.072;2022-11-20T23:03:01;12.87;;;9.83;;
44572;SDS011;31762;45.420;10.072;2022-11-20T23:08:03;10.80;;;9.32;;
44572;SDS011;31762;45.420;10.072;2022-11-20T23:13:05;12.35;;;10.23;;
44572;SDS011;31762;45.420;10.072;2022-11-20T23:18:07;11.97;;;9.93;;
44572;SDS011;31762;45.420;10.072;2022-11-20T23:23:09;12.27;;;9.82;;
44572;SDS011;31762;45.420;10.072;2022-11-20T23:28:10;13.52;;;10.63;;
44572;SDS011;31762;45.420;10.072;2022-11-20T23:33:12;13.80;;;10.70;;
44572;SDS011;31762;45.420;10.072;2022-11-20T23:38:14;11.68;;;10.10;;
44572;SDS011;31762;45.420;10.072;2022-11-20T23:43:16;13.30;;;10.05;;
44572;SDS011;31762;45.420;10.072;2022-11-20T23:48:20;11.82;;;9.32;;
44572;SDS011;31762;45.420;10.072;2022-11-20T23:53:23;12.10;;;9.20;;
44572;SDS011;31762;45.420;10.072;2022-11-20T23:58:29;13.10;;;9.60;;
